Terminal Aerodrome Forecast
Issued by NWS Cleveland, OH

Home | Current Version | Previous Version | Graphics & Text | Print | Product List | Glossary On
Versions: 1 2 3 4 5 6 7 8 9 10 11 12 13 14 15 16 17 18 19 20 21 22 23 24 25 26 27 28 29
399
FTUS41 KCLE 211723
TAFCLE
TAF
KCLE 211723Z 2118/2224 35008KT P6SM SCT025
     FM220500 14004KT P6SM SCT250
     FM220900 15006KT P6SM BKN100
     FM221400 18008KT P6SM VCSH SCT060 BKN100
     FM221800 21011KT P6SM BKN150=

USA.gov is the U.S. government's official web portal to all federal, state and local government web resources and services.